Time;durP1;ratioP1;P1;durP2;ratioP2;P2;SDS_P1;SDS_P2;PMS_P1;PMS_P2;Temp;Humidity;BMP_temperature;BMP_pressure;BME280_temperature;BME280_humidity;BME280_pressure;Samples;Min_cycle;Max_cycle;Signal;HPM_P1;HPM_P2
2022/07/30 00:00:55;;;;;;;7.30;3.07;;;;;;;25.59;50.90;100343.44;5084973;28;20424;-63
2022/07/30 00:03:20;;;;;;;8.60;4.33;;;;;;;25.59;51.41;100343.44;5090335;28;20179;-63
2022/07/30 00:05:46;;;;;;;4.03;3.00;;;;;;;25.60;51.39;100350.84;5088334;28;20178;-63
2022/07/30 00:08:11;;;;;;;3.83;2.70;;;;;;;25.59;51.07;100344.22;5090205;28;20182;-63
2022/07/30 00:10:37;;;;;;;6.57;3.87;;;;;;;25.58;51.27;100336.81;5087771;28;20222;-63
2022/07/30 00:13:03;;;;;;;5.80;2.93;;;;;;;25.59;51.25;100344.22;5085586;28;20175;-63
2022/07/30 00:15:28;;;;;;;5.97;3.70;;;;;;;25.58;51.57;100338.91;5083056;28;20427;-63
2022/07/30 00:17:54;;;;;;;4.73;2.97;;;;;;;25.60;51.05;100342.16;5089212;28;20163;-63
2022/07/30 00:20:19;;;;;;;5.73;3.53;;;;;;;25.57;50.85;100338.06;5083398;28;20175;-63
2022/07/30 00:22:45;;;;;;;7.00;3.53;;;;;;;25.58;51.36;100345.47;5083824;28;20858;-63
2022/07/30 00:25:11;;;;;;;7.10;3.50;;;;;;;25.56;51.17;100339.31;5092035;28;20170;-63
2022/07/30 00:27:36;;;;;;;6.40;3.10;;;;;;;25.57;51.29;100343.84;5091554;28;20188;-63
2022/07/30 00:30:02;;;;;;;5.80;3.43;;;;;;;25.57;51.46;100340.97;5092405;28;20195;-63
2022/07/30 00:32:28;;;;;;;4.40;3.03;;;;;;;25.57;51.27;100346.75;5092513;28;20227;-63
2022/07/30 00:34:53;;;;;;;8.37;3.27;;;;;;;25.56;51.22;100342.22;5092303;28;20913;-63
2022/07/30 00:37:19;;;;;;;6.60;3.20;;;;;;;25.57;51.47;100348.78;5092594;28;20197;-63
2022/07/30 00:39:44;;;;;;;7.80;3.17;;;;;;;25.56;51.50;100348.00;5092292;28;20633;-63
2022/07/30 00:42:09;;;;;;;6.27;3.70;;;;;;;25.57;51.27;100346.75;5092349;28;20629;-63
2022/07/30 00:44:35;;;;;;;5.33;3.20;;;;;;;25.55;50.97;100339.75;5092593;28;20183;-63
2022/07/30 00:47:00;;;;;;;4.53;3.00;;;;;;;25.55;50.83;100342.63;5081772;28;20253;-63
2022/07/30 00:49:26;;;;;;;5.73;3.97;;;;;;;25.54;51.34;100338.09;5077121;28;20183;-63
2022/07/30 00:51:51;;;;;;;7.67;3.40;;;;;;;25.53;51.02;100340.16;5092213;28;20205;-63
2022/07/30 00:54:17;;;;;;;7.50;2.87;;;;;;;25.53;50.94;100340.16;5092325;28;20253;-63
2022/07/30 00:56:43;;;;;;;5.27;3.20;;;;;;;25.53;50.74;100343.06;5091831;28;20232;-63
2022/07/30 00:59:08;;;;;;;4.80;3.20;;;;;;;25.53;51.14;100337.28;5092137;28;20178;-63
2022/07/30 01:01:34;;;;;;;4.73;3.30;;;;;;;25.54;51.14;100343.88;5088727;28;20182;-63
2022/07/30 01:03:59;;;;;;;5.17;3.40;;;;;;;25.52;50.83;100335.63;5076467;28;20182;-63
2022/07/30 01:06:25;;;;;;;6.83;3.30;;;;;;;25.51;50.93;100339.78;5091321;28;20197;-63
2022/07/30 01:08:50;;;;;;;7.63;4.00;;;;;;;25.52;51.23;100338.53;5088262;28;20166;-63
2022/07/30 01:11:16;;;;;;;7.37;3.40;;;;;;;25.52;51.23;100335.63;5091592;28;20213;-63
2022/07/30 01:13:42;;;;;;;6.63;3.90;;;;;;;25.52;51.14;100338.53;5090991;28;20182;-63
2022/07/30 01:16:08;;;;;;;7.23;3.30;;;;;;;25.52;50.93;100334.81;5088936;28;20173;-63
2022/07/30 01:21:19;;;;;;;5.23;2.80;;;;;;;25.50;50.89;100329.47;5068116;28;20409;-63
2022/07/30 01:23:45;;;;;;;5.20;3.63;;;;;;;25.51;51.22;100333.16;5067427;28;20509;-63
2022/07/30 01:26:11;;;;;;;5.03;3.30;;;;;;;25.52;51.26;100334.81;5066175;28;20807;-63
2022/07/30 01:28:38;;;;;;;5.70;4.13;;;;;;;25.50;51.10;100325.75;5078196;28;20273;-63
2022/07/30 01:31:03;;;;;;;6.93;3.43;;;;;;;25.49;50.87;100324.13;5088008;28;20448;-63
2022/07/30 01:33:29;;;;;;;7.10;3.50;;;;;;;25.49;51.18;100324.91;5088278;28;20696;-63
2022/07/30 01:35:54;;;;;;;9.07;3.70;;;;;;;25.49;50.98;100329.91;5088035;28;20513;-63
2022/07/30 01:38:21;;;;;;;4.53;3.00;;;;;;;25.49;50.87;100335.69;5089563;28;20268;-63
2022/07/30 01:40:47;;;;;;;5.20;2.90;;;;;;;25.49;51.05;100329.91;5091228;28;20215;-63
2022/07/30 01:43:13;;;;;;;4.70;3.47;;;;;;;25.47;51.18;100329.47;5091284;28;20421;-63
2022/07/30 01:45:38;;;;;;;7.57;3.30;;;;;;;25.47;50.85;100330.31;5090934;28;20275;-63
2022/07/30 01:48:04;;;;;;;6.63;3.30;;;;;;;25.46;50.67;100328.69;5089654;28;20246;-63
2022/07/30 01:50:30;;;;;;;4.97;3.40;;;;;;;25.47;51.12;100330.31;5091264;28;20703;-63
2022/07/30 01:52:55;;;;;;;6.30;3.33;;;;;;;25.46;50.80;100337.34;5072964;28;20413;-63
2022/07/30 01:55:24;;;;;;;8.10;3.20;;;;;;;25.44;51.08;100334.06;5072927;28;20228;-63
2022/07/30 01:57:50;;;;;;;6.97;3.40;;;;;;;25.45;50.83;100350.16;5089568;28;20170;-63
2022/07/30 02:00:16;;;;;;;6.17;3.50;;;;;;;25.45;50.77;100335.72;5090853;28;21041;-63
2022/07/30 02:02:41;;;;;;;4.53;3.37;;;;;;;25.45;50.79;100343.56;5089183;28;20207;-63
2022/07/30 02:05:07;;;;;;;5.03;3.80;;;;;;;25.44;50.78;100348.50;5090851;28;20170;-63
2022/07/30 02:07:37;;;;;;;4.50;3.33;;;;;;;25.44;50.62;100357.19;5090922;28;20170;-63
2022/07/30 02:10:23;;;;;;;7.47;3.70;;;;;;;25.44;51.17;100359.25;5090599;28;20226;-63
2022/07/30 02:12:54;;;;;;;9.30;3.73;;;;;;;25.43;51.07;100360.53;5073869;28;20459;-63
2022/07/30 02:15:33;;;;;;;7.07;3.50;;;;;;;25.44;50.69;100365.84;5072502;28;20763;-63
2022/07/30 02:18:20;;;;;;;4.73;3.50;;;;;;;25.43;50.90;100369.19;5090494;28;20413;-63
2022/07/30 02:20:50;;;;;;;4.70;3.00;;;;;;;25.43;51.00;100374.97;5089150;28;20466;-63
2022/07/30 02:23:15;;;;;;;5.53;3.00;;;;;;;25.42;50.66;100373.31;5072909;28;20417;-63
2022/07/30 02:25:43;;;;;;;12.07;4.23;;;;;;;25.42;50.43;100373.31;5090837;28;20748;-63
2022/07/30 02:28:10;;;;;;;5.20;3.33;;;;;;;25.40;50.66;100373.75;5076891;28;20332;-63
2022/07/30 02:30:36;;;;;;;7.07;3.30;;;;;;;25.41;50.72;100372.50;5071853;28;20460;-63
2022/07/30 02:33:04;;;;;;;5.43;3.20;;;;;;;25.40;50.53;100373.75;5084557;28;20982;-63
2022/07/30 02:35:30;;;;;;;4.90;3.27;;;;;;;25.39;51.00;100366.31;5091970;28;20431;-63
2022/07/30 02:37:55;;;;;;;13.30;3.37;;;;;;;25.40;50.65;100370.03;5074808;28;20409;-63
2022/07/30 02:40:21;;;;;;;5.37;3.20;;;;;;;25.39;50.53;100374.97;5091843;28;20704;-63
2022/07/30 02:42:49;;;;;;;5.27;3.23;;;;;;;25.39;50.42;100374.97;5091820;28;20170;-63
2022/07/30 02:45:17;;;;;;;7.13;3.47;;;;;;;25.39;50.55;100374.19;5093977;28;20167;-63
2022/07/30 02:47:44;;;;;;;4.77;2.80;;;;;;;25.38;50.33;100381.22;5094400;28;20458;-63
2022/07/30 02:50:09;;;;;;;5.73;3.57;;;;;;;25.38;50.36;100384.91;5076565;28;20456;-63
2022/07/30 02:52:35;;;;;;;5.70;3.27;;;;;;;25.38;50.63;100389.88;5072447;28;20428;-64
2022/07/30 02:55:01;;;;;;;5.00;3.00;;;;;;;25.36;50.58;100381.63;5073155;28;20559;-63
2022/07/30 02:57:26;;;;;;;5.80;3.43;;;;;;;25.37;50.54;100397.72;5074371;28;20193;-63
2022/07/30 02:59:52;;;;;;;4.97;3.20;;;;;;;25.37;50.41;100402.66;5056202;28;20248;-63
2022/07/30 03:02:17;;;;;;;4.80;3.20;;;;;;;25.36;50.64;100407.66;5072648;28;20257;-63
2022/07/30 03:04:42;;;;;;;6.40;3.47;;;;;;;25.36;50.56;100407.66;5074990;28;20514;-63
2022/07/30 03:07:08;;;;;;;4.73;2.97;;;;;;;25.35;50.36;100405.19;5091901;28;20625;-63
2022/07/30 03:09:34;;;;;;;5.17;3.40;;;;;;;25.34;50.01;100407.22;5093977;28;20234;-63
2022/07/30 03:12:00;;;;;;;7.43;3.33;;;;;;;25.34;50.66;100404.34;5075769;28;20299;-63
2022/07/30 03:14:25;;;;;;;6.93;3.50;;;;;;;25.34;50.52;100404.34;5071803;28;20425;-63
2022/07/30 03:16:54;;;;;;;4.87;3.30;;;;;;;25.33;50.87;100402.69;5073637;28;20541;-63
2022/07/30 03:19:22;;;;;;;10.00;3.17;;;;;;;25.33;50.07;100402.69;5078026;28;20174;-63
2022/07/30 03:21:48;;;;;;;5.60;3.70;;;;;;;25.34;50.75;100406.44;5092290;28;20776;-63
2022/07/30 03:24:14;;;;;;;4.70;3.00;;;;;;;25.33;50.41;100405.59;5092461;28;20420;-63
2022/07/30 03:26:39;;;;;;;7.50;3.93;;;;;;;25.32;50.46;100412.63;5091865;28;20416;-63
2022/07/30 03:29:06;;;;;;;6.80;3.70;;;;;;;25.32;50.41;100418.41;5073506;28;20182;-63
2022/07/30 03:31:31;;;;;;;10.37;4.13;;;;;;;25.32;50.60;100409.75;5069503;28;20285;-63
2022/07/30 03:33:57;;;;;;;7.53;3.90;;;;;;;25.32;50.30;100414.69;5071396;28;20510;-63
2022/07/30 03:36:22;;;;;;;5.30;3.30;;;;;;;25.31;50.59;100410.16;5071253;28;20182;-63
2022/07/30 03:38:48;;;;;;;5.43;3.10;;;;;;;25.30;50.65;100415.13;5067972;28;20229;-63
2022/07/30 03:41:13;;;;;;;6.53;3.70;;;;;;;25.30;50.44;100417.19;5068889;28;20531;-63
2022/07/30 03:43:38;;;;;;;4.90;2.80;;;;;;;25.29;50.44;100416.34;5052447;28;20187;-63
2022/07/30 03:46:04;;;;;;;4.80;3.50;;;;;;;25.29;50.35;100418.44;5069207;28;20641;-63
2022/07/30 03:48:30;;;;;;;5.40;3.53;;;;;;;25.29;50.55;100419.25;5070473;28;20182;-63
2022/07/30 03:50:55;;;;;;;4.87;3.00;;;;;;;25.29;50.55;100427.13;5069980;28;20203;-63
2022/07/30 03:53:23;;;;;;;5.93;3.07;;;;;;;25.27;50.40;100427.53;5069846;28;20175;-63
2022/07/30 03:55:50;;;;;;;7.37;3.47;;;;;;;25.27;50.20;100426.69;5072276;28;20183;-63
2022/07/30 03:58:15;;;;;;;4.30;3.40;;;;;;;25.27;50.67;100430.41;5071415;28;20432;-63
2022/07/30 04:00:41;;;;;;;4.67;3.07;;;;;;;25.26;50.54;100433.72;5072760;28;20413;-63
2022/07/30 04:03:06;;;;;;;4.10;3.40;;;;;;;25.26;50.47;100434.56;5071590;28;20190;-63
2022/07/30 04:05:32;;;;;;;3.77;2.70;;;;;;;25.26;50.28;100431.66;5080884;28;20205;-63
2022/07/30 04:07:57;;;;;;;4.47;3.43;;;;;;;25.25;50.38;100430.03;5092770;28;20546;-63
2022/07/30 04:10:23;;;;;;;5.00;2.77;;;;;;;25.24;50.24;100431.22;5092820;28;20234;-63
2022/07/30 04:12:48;;;;;;;8.10;3.60;;;;;;;25.25;50.22;100444.50;5092863;28;20185;-63
2022/07/30 04:15:13;;;;;;;8.90;4.20;;;;;;;25.25;50.49;100435.81;5092606;28;20186;-63
2022/07/30 04:17:42;;;;;;;4.93;3.00;;;;;;;25.24;50.43;100445.69;5092505;28;20179;-63
2022/07/30 04:20:20;;;;;;;5.10;3.47;;;;;;;25.24;50.35;100445.69;5088351;28;20167;-63
2022/07/30 04:22:45;;;;;;;5.03;3.10;;;;;;;25.24;50.08;100447.75;5076261;28;20405;-63
2022/07/30 04:25:11;;;;;;;5.40;3.27;;;;;;;25.24;50.19;100447.75;5091626;28;20451;-63
2022/07/30 04:27:36;;;;;;;5.27;3.47;;;;;;;25.23;50.26;100454.78;5090712;28;20563;-63
2022/07/30 04:30:02;;;;;;;5.93;3.37;;;;;;;25.22;50.59;100456.84;5074398;28;20186;-63
2022/07/30 04:32:27;;;;;;;8.73;3.93;;;;;;;25.22;50.60;100458.91;5092856;28;20273;-63
2022/07/30 04:34:53;;;;;;;11.20;3.57;;;;;;;25.22;50.57;100462.63;5092516;28;20177;-63
2022/07/30 04:37:20;;;;;;;5.13;3.67;;;;;;;25.22;50.33;100458.91;5092333;28;20179;-63
2022/07/30 04:39:48;;;;;;;5.40;2.87;;;;;;;25.21;50.43;100461.00;5092227;28;20795;-63
2022/07/30 04:42:14;;;;;;;5.53;3.47;;;;;;;25.20;50.05;100465.13;5091910;28;20937;-63
2022/07/30 04:44:39;;;;;;;4.67;3.40;;;;;;;25.21;50.05;100465.94;5092291;28;20424;-63
2022/07/30 04:47:05;;;;;;;6.70;3.67;;;;;;;25.20;49.78;100470.91;5092074;28;20541;-63
2022/07/30 04:49:30;;;;;;;6.33;3.33;;;;;;;25.21;50.37;100474.59;5091155;28;20613;-63
2022/07/30 04:51:56;;;;;;;5.97;3.67;;;;;;;25.20;50.12;100482.47;5073902;28;20658;-63
2022/07/30 04:54:21;;;;;;;4.17;2.60;;;;;;;25.19;50.12;100483.69;5070287;28;20178;-63
2022/07/30 04:56:47;;;;;;;5.83;3.80;;;;;;;25.19;49.75;100475.03;5069102;28;20240;-63
2022/07/30 04:59:12;;;;;;;4.57;3.17;;;;;;;25.20;50.41;100485.34;5052205;28;20729;-63
2022/07/30 05:01:38;;;;;;;4.40;3.13;;;;;;;25.20;50.05;100479.59;5068761;28;20171;-63
2022/07/30 05:04:03;;;;;;;5.33;3.50;;;;;;;25.20;49.99;100485.34;5068860;28;20617;-63
2022/07/30 05:06:29;;;;;;;5.90;3.80;;;;;;;25.21;50.16;100484.13;5051224;28;20258;-63
2022/07/30 05:08:54;;;;;;;6.20;3.57;;;;;;;25.22;50.09;100482.03;5069350;28;20549;-63
2022/07/30 05:11:20;;;;;;;9.20;3.40;;;;;;;25.22;49.93;100485.75;5051563;28;20297;-63
2022/07/30 05:13:49;;;;;;;5.43;3.67;;;;;;;25.21;49.86;100487.00;5070769;28;20186;-63
2022/07/30 05:16:14;;;;;;;4.80;3.43;;;;;;;25.20;49.95;100478.75;5070733;28;20183;-63
2022/07/30 05:18:40;;;;;;;5.40;2.87;;;;;;;25.19;49.94;100483.69;5071336;28;20432;-63
2022/07/30 05:21:05;;;;;;;5.50;3.47;;;;;;;25.17;49.97;100491.97;5071547;28;20233;-63
2022/07/30 05:23:31;;;;;;;6.50;3.43;;;;;;;25.14;49.90;100484.13;5071509;28;20182;-63
2022/07/30 05:25:56;;;;;;;6.77;3.10;;;;;;;25.14;50.10;100492.00;5091162;28;20637;-63
2022/07/30 05:28:22;;;;;;;5.03;3.30;;;;;;;25.13;49.88;100491.16;5091545;28;20621;-63
2022/07/30 05:30:48;;;;;;;4.93;3.30;;;;;;;25.12;49.98;100494.47;5078033;28;20203;-63
2022/07/30 05:33:14;;;;;;;7.07;3.70;;;;;;;25.11;49.38;100499.44;5070937;28;20194;-63
2022/07/30 05:35:39;;;;;;;6.33;3.60;;;;;;;25.11;49.89;100495.72;5070975;28;20888;-63
2022/07/30 05:38:04;;;;;;;7.33;3.60;;;;;;;25.10;50.11;100497.81;5071011;28;20522;-63
2022/07/30 05:40:30;;;;;;;7.00;3.33;;;;;;;25.08;50.08;100494.50;5071064;28;20167;-63
2022/07/30 05:42:55;;;;;;;5.47;3.40;;;;;;;25.08;49.92;100500.28;5070947;28;20200;-63
2022/07/30 05:45:21;;;;;;;4.70;3.63;;;;;;;25.04;50.04;100493.69;5070574;28;20171;-63
2022/07/30 05:47:47;;;;;;;5.83;3.97;;;;;;;25.03;49.99;100492.03;5070868;28;20187;-63
2022/07/30 05:50:12;;;;;;;5.60;3.77;;;;;;;25.03;50.13;100502.78;5081055;28;20206;-63
2022/07/30 05:52:38;;;;;;;6.90;3.73;;;;;;;25.04;50.01;100499.47;5091367;28;20175;-63
2022/07/30 05:55:03;;;;;;;7.60;3.70;;;;;;;25.04;50.14;100498.66;5090870;28;20182;-63
2022/07/30 05:57:29;;;;;;;5.67;3.77;;;;;;;25.02;50.31;100504.00;5090931;28;20246;-63
2022/07/30 05:59:54;;;;;;;5.83;3.60;;;;;;;25.04;50.18;100499.47;5091281;28;20182;-63
2022/07/30 06:02:20;;;;;;;6.67;3.80;;;;;;;25.03;50.18;100503.59;5089055;28;20185;-63
2022/07/30 06:04:45;;;;;;;6.40;3.67;;;;;;;25.04;50.07;100502.34;5090656;28;20260;-63
2022/07/30 06:07:11;;;;;;;7.20;3.77;;;;;;;25.04;50.26;100510.22;5090636;28;20178;-63
2022/07/30 06:09:36;;;;;;;9.07;3.77;;;;;;;25.02;50.24;100507.75;5090219;28;20226;-63
2022/07/30 06:12:03;;;;;;;7.13;4.33;;;;;;;25.00;50.46;100516.00;5090473;28;20239;-63
2022/07/30 06:14:30;;;;;;;6.17;3.73;;;;;;;24.98;50.38;100506.94;5090024;28;20428;-63
2022/07/30 06:16:56;;;;;;;5.23;3.70;;;;;;;24.96;50.24;100512.31;5090546;28;20546;-63
2022/07/30 06:19:21;;;;;;;5.33;3.50;;;;;;;24.94;50.49;100511.91;5089206;28;20838;-63
2022/07/30 06:21:47;;;;;;;5.90;3.47;;;;;;;24.97;50.35;100516.00;5078229;28;20175;-63
2022/07/30 06:24:12;;;;;;;5.83;3.53;;;;;;;24.96;50.37;100514.38;5069045;28;20221;-63
2022/07/30 06:26:38;;;;;;;7.13;3.90;;;;;;;24.94;50.25;100517.66;5072775;28;20217;-63
2022/07/30 06:29:03;;;;;;;5.33;3.77;;;;;;;24.98;50.32;100524.25;5089004;28;20182;-63
2022/07/30 06:31:29;;;;;;;9.00;3.87;;;;;;;25.00;50.28;100521.78;5089265;28;20210;-63
2022/07/30 06:33:54;;;;;;;6.30;3.47;;;;;;;25.02;50.10;100518.47;5090084;28;20644;-63
2022/07/30 06:36:19;;;;;;;5.70;3.37;;;;;;;25.02;50.36;100525.06;5080358;28;20518;-63
2022/07/30 06:38:45;;;;;;;5.87;3.63;;;;;;;25.00;50.08;100527.56;5090440;28;20189;-63
2022/07/30 06:41:11;;;;;;;5.10;3.80;;;;;;;25.02;50.17;100519.28;5090838;28;20239;-63
2022/07/30 06:43:37;;;;;;;5.60;3.47;;;;;;;25.01;50.47;100511.03;5090333;28;20542;-63
2022/07/30 06:46:02;;;;;;;7.90;3.10;;;;;;;25.00;50.24;100521.78;5089315;28;20424;-63
2022/07/30 06:48:29;;;;;;;6.03;3.30;;;;;;;24.98;50.25;100515.59;5072898;28;20182;-63
2022/07/30 06:50:55;;;;;;;9.17;4.17;;;;;;;25.00;50.14;100520.97;5070038;28;20759;-63
2022/07/30 06:53:20;;;;;;;6.60;3.60;;;;;;;24.97;50.27;100519.72;5069814;28;20421;-63
2022/07/30 06:55:46;;;;;;;5.60;3.20;;;;;;;24.96;50.17;100525.94;5070092;28;20182;-63
2022/07/30 06:58:11;;;;;;;5.43;3.60;;;;;;;24.97;50.53;100530.44;5069926;28;20171;-63
2022/07/30 07:00:36;;;;;;;6.27;3.33;;;;;;;24.99;50.31;100530.88;5075754;28;20257;-63
2022/07/30 07:03:02;;;;;;;5.87;3.30;;;;;;;24.97;50.23;100528.41;5089984;28;20171;-63
2022/07/30 07:05:27;;;;;;;5.47;3.10;;;;;;;24.99;49.99;100531.69;5072636;28;20557;-63
2022/07/30 07:07:53;;;;;;;5.73;3.60;;;;;;;25.00;50.58;100538.28;5069812;28;20175;-63
2022/07/30 07:10:19;;;;;;;5.80;4.00;;;;;;;24.84;50.43;100535.88;5074919;28;20239;-63
2022/07/30 07:12:45;;;;;;;6.10;3.50;;;;;;;24.94;50.09;100535.00;5068938;28;20657;-63
2022/07/30 07:15:10;;;;;;;7.83;3.77;;;;;;;24.88;50.13;100542.47;5073641;28;20508;-63
2022/07/30 07:17:36;;;;;;;8.63;3.80;;;;;;;24.97;50.23;100534.19;5073387;28;20182;-63
2022/07/30 07:20:01;;;;;;;5.00;3.50;;;;;;;25.00;50.28;100544.91;5078230;28;20194;-63
2022/07/30 07:22:27;;;;;;;9.30;3.43;;;;;;;25.00;50.07;100538.28;5073293;28;20179;-63
2022/07/30 07:24:53;;;;;;;5.30;3.50;;;;;;;24.97;50.21;100542.00;5073688;28;20195;-63
2022/07/30 07:27:19;;;;;;;5.70;3.70;;;;;;;24.88;50.35;100539.56;5082969;28;20197;-63
2022/07/30 07:29:44;;;;;;;8.20;3.77;;;;;;;24.78;50.42;100542.53;5092627;28;20431;-63
2022/07/30 07:32:10;;;;;;;5.00;3.43;;;;;;;24.83;50.53;100534.22;5093461;28;20615;-63
2022/07/30 07:34:35;;;;;;;6.17;4.00;;;;;;;24.84;50.19;100532.19;5090259;28;20531;-63
2022/07/30 07:37:00;;;;;;;7.87;4.00;;;;;;;24.77;50.47;100535.06;5093436;28;20170;-63
2022/07/30 07:39:26;;;;;;;5.70;3.50;;;;;;;24.85;50.21;100539.59;5092474;28;20643;-63
2022/07/30 07:41:51;;;;;;;6.83;3.70;;;;;;;24.95;50.03;100538.72;5073168;28;20191;-63
2022/07/30 07:44:17;;;;;;;5.87;3.20;;;;;;;24.92;50.42;100534.63;5072268;28;20587;-63
2022/07/30 07:46:42;;;;;;;16.00;3.60;;;;;;;24.96;50.14;100537.47;5071588;28;20182;-63
2022/07/30 07:49:08;;;;;;;6.07;2.90;;;;;;;24.87;50.49;100534.22;5073371;28;20235;-63
2022/07/30 07:51:34;;;;;;;7.43;3.97;;;;;;;24.91;50.44;100537.91;5090225;28;20206;-63
2022/07/30 07:54:00;;;;;;;8.80;3.50;;;;;;;24.92;49.53;100530.88;5071680;28;20198;-63
2022/07/30 07:56:26;;;;;;;4.50;3.40;;;;;;;24.94;50.09;100537.09;5071482;28;20496;-63
2022/07/30 07:58:52;;;;;;;9.07;4.10;;;;;;;24.94;50.40;100540.78;5075017;28;20178;-63
2022/07/30 08:01:19;;;;;;;5.17;3.30;;;;;;;25.01;50.07;100535.00;5075886;28;20187;-63
2022/07/30 08:03:45;;;;;;;6.40;3.20;;;;;;;24.97;49.87;100533.34;5071727;28;20500;-63
2022/07/30 08:06:10;;;;;;;9.60;3.87;;;;;;;24.98;50.41;100530.03;5073877;28;20534;-63
2022/07/30 08:08:36;;;;;;;6.60;4.23;;;;;;;25.01;49.69;100535.00;5078792;28;20269;-63
2022/07/30 08:11:02;;;;;;;7.23;4.03;;;;;;;25.03;49.97;100531.69;5070817;28;20222;-63
2022/07/30 08:13:28;;;;;;;8.57;3.47;;;;;;;25.04;49.88;100530.44;5071972;28;20661;-63
2022/07/30 08:15:53;;;;;;;9.20;4.30;;;;;;;24.98;49.87;100530.03;5073188;28;20473;-63
2022/07/30 08:18:19;;;;;;;6.07;3.47;;;;;;;25.00;49.93;100523.84;5073257;28;20185;-63
2022/07/30 08:20:44;;;;;;;9.17;3.40;;;;;;;25.00;49.85;100526.75;5074162;28;20185;-63
2022/07/30 08:23:10;;;;;;;7.83;4.10;;;;;;;24.96;49.59;100525.94;5086307;28;20178;-65
2022/07/30 08:25:36;;;;;;;4.27;2.90;;;;;;;25.03;49.61;100531.69;5086836;28;20518;-63
2022/07/30 08:28:02;;;;;;;8.43;4.03;;;;;;;25.10;49.86;100532.47;5074064;28;20413;-63
2022/07/30 08:30:28;;;;;;;6.00;3.97;;;;;;;25.03;50.58;100525.91;5082226;28;20199;-63
2022/07/30 08:32:53;;;;;;;9.50;5.00;;;;;;;25.27;51.82;100537.38;5081582;28;20428;-63
2022/07/30 08:35:18;;;;;;;10.40;5.07;;;;;;;25.26;51.17;100529.94;5078467;28;20179;-63
2022/07/30 08:37:44;;;;;;;6.77;4.03;;;;;;;25.19;50.71;100527.03;5069280;28;20659;-63
2022/07/30 08:40:10;;;;;;;6.43;3.50;;;;;;;25.28;51.26;100524.56;5069232;28;20723;-63
2022/07/30 08:42:35;;;;;;;8.80;4.20;;;;;;;25.28;50.72;100520.84;5071067;28;20261;-63
2022/07/30 08:45:01;;;;;;;5.80;3.60;;;;;;;25.21;50.18;100533.25;5083633;28;21005;-63
2022/07/30 08:47:35;;;;;;;6.77;3.83;;;;;;;25.26;49.77;100523.31;5069542;28;20524;-63
2022/07/30 08:50:04;;;;;;;7.87;3.90;;;;;;;25.27;48.90;100531.59;5073836;28;20178;-63
2022/07/30 08:52:31;;;;;;;6.73;3.63;;;;;;;25.28;49.24;100520.84;5072028;28;20417;-63
2022/07/30 08:54:57;;;;;;;7.90;3.33;;;;;;;25.31;48.54;100529.50;5070587;28;20516;-63
2022/07/30 08:57:23;;;;;;;8.67;3.30;;;;;;;25.20;48.64;100531.59;5070320;28;20473;-63
2022/07/30 08:59:50;;;;;;;6.93;3.93;;;;;;;25.28;48.88;100523.75;5074741;28;20433;-63
2022/07/30 09:02:15;;;;;;;10.23;3.80;;;;;;;25.31;47.10;100523.72;5070284;28;20175;-63
2022/07/30 09:04:41;;;;;;;8.93;3.90;;;;;;;25.34;47.93;100519.97;5069801;28;20924;-63
2022/07/30 09:07:07;;;;;;;8.00;3.90;;;;;;;25.38;48.38;100514.19;5081451;28;20423;-63
2022/07/30 09:09:32;;;;;;;5.97;3.53;;;;;;;25.44;47.23;100521.97;5069841;28;20226;-63
2022/07/30 09:11:58;;;;;;;5.50;2.87;;;;;;;25.47;45.53;100521.13;5069432;28;20214;-64
2022/07/30 09:14:23;;;;;;;6.43;3.00;;;;;;;25.42;45.07;100515.81;5072211;28;20181;-63
2022/07/30 09:16:55;;;;;;;7.13;3.33;;;;;;;25.49;46.16;100524.41;5068127;28;20227;-63
2022/07/30 09:19:20;;;;;;;11.00;3.13;;;;;;;25.50;46.16;100523.19;5072759;28;20186;-63
2022/07/30 09:21:55;;;;;;;7.47;4.03;;;;;;;25.60;45.29;100528.09;5085318;28;20424;-63
2022/07/30 09:24:20;;;;;;;7.93;3.53;;;;;;;25.69;46.01;100524.72;5080606;28;20179;-63
2022/07/30 09:26:57;;;;;;;5.77;2.90;;;;;;;25.67;45.74;100516.44;5073269;28;20428;-62
2022/07/30 09:29:25;;;;;;;3.97;3.03;;;;;;;25.66;45.77;100517.69;5074243;28;20707;-62
2022/07/30 09:31:58;;;;;;;7.00;2.93;;;;;;;25.65;45.50;100524.72;5079031;28;20472;-63
2022/07/30 09:34:29;;;;;;;5.87;3.47;;;;;;;25.56;42.96;100509.94;5077300;28;20439;-63
2022/07/30 09:37:15;;;;;;;5.23;2.97;;;;;;;25.51;43.08;100512.44;5082808;28;20433;-63
2022/07/30 09:39:40;;;;;;;10.97;3.20;;;;;;;25.66;44.40;100513.97;5085136;28;20432;-62
2022/07/30 09:42:38;;;;;;;6.90;2.97;;;;;;;25.75;44.34;100512.22;5073610;28;20470;-62
2022/07/30 09:45:13;;;;;;;10.00;2.87;;;;;;;25.79;46.25;100513.03;5040412;28;20253;-62
2022/07/30 09:47:47;;;;;;;11.70;3.80;;;;;;;25.78;44.17;100499.00;5085725;28;20431;-63
2022/07/30 09:50:14;;;;;;;6.10;2.90;;;;;;;25.77;45.01;100512.66;5079935;28;20452;-63
2022/07/30 09:52:44;;;;;;;9.47;3.20;;;;;;;25.77;45.17;100506.88;5077530;28;20485;-62
2022/07/30 09:55:10;;;;;;;6.87;3.03;;;;;;;25.81;45.57;100507.66;5083297;28;20933;-62
2022/07/30 09:57:35;;;;;;;11.33;3.00;;;;;;;25.80;45.11;100500.22;5074226;28;20433;-62
2022/07/30 10:00:16;;;;;;;8.87;2.73;;;;;;;25.80;44.03;100508.88;5066526;28;20186;-62
2022/07/30 10:02:42;;;;;;;6.63;3.10;;;;;;;25.78;43.82;100504.78;5079714;28;20236;-63
2022/07/30 10:05:09;;;;;;;5.27;3.30;;;;;;;25.82;44.90;100497.72;5077313;28;20834;-64
2022/07/30 10:07:34;;;;;;;5.57;3.17;;;;;;;25.77;45.91;100501.09;5084270;28;20212;-63
2022/07/30 10:09:59;;;;;;;5.33;2.60;;;;;;;25.78;46.34;100494.03;5052731;28;20465;-64
2022/07/30 10:12:25;;;;;;;8.47;4.70;;;;;;;25.89;44.98;100497.66;5067712;28;20708;-64
2022/07/30 10:14:52;;;;;;;5.80;4.10;;;;;;;25.99;44.43;100488.09;5072478;28;20182;-63
2022/07/30 10:17:17;;;;;;;6.67;3.40;;;;;;;25.94;44.24;100479.88;5069495;28;20580;-63
2022/07/30 10:19:43;;;;;;;5.93;3.47;;;;;;;25.85;45.38;100487.38;5068827;28;20428;-63
2022/07/30 10:22:08;;;;;;;8.83;3.13;;;;;;;25.84;46.00;100477.06;5069278;28;20197;-63
2022/07/30 10:24:34;;;;;;;5.80;3.33;;;;;;;25.87;44.89;100482.81;5081869;28;20681;-63
2022/07/30 10:26:59;;;;;;;9.13;3.07;;;;;;;25.86;45.20;100484.06;5070856;28;20186;-63
2022/07/30 10:29:24;;;;;;;7.13;3.67;;;;;;;25.83;45.40;100478.28;5072241;28;20183;-63
2022/07/30 10:31:50;;;;;;;5.60;3.00;;;;;;;25.91;44.44;100474.09;5069911;28;20197;-63
2022/07/30 10:34:17;;;;;;;9.53;3.07;;;;;;;25.92;44.55;100475.75;5074961;28;20182;-63
2022/07/30 10:36:44;;;;;;;8.20;2.80;;;;;;;25.98;44.00;100474.03;5085714;28;20189;-63
2022/07/30 10:39:14;;;;;;;8.50;2.93;;;;;;;25.95;44.04;100474.91;5070005;28;20527;-63
2022/07/30 10:42:04;;;;;;;5.63;3.13;;;;;;;25.83;44.66;100469.59;5068428;28;20417;-63
2022/07/30 10:45:02;;;;;;;6.70;2.80;;;;;;;25.84;44.18;100468.38;5072526;28;20424;-63
2022/07/30 10:47:28;;;;;;;7.97;3.20;;;;;;;25.87;44.26;100468.34;5070872;28;20894;-63
2022/07/30 10:50:13;;;;;;;6.17;2.80;;;;;;;25.87;43.86;100459.66;5076808;28;20423;-63
2022/07/30 10:52:45;;;;;;;6.70;2.83;;;;;;;25.92;43.44;100456.34;5072997;28;20179;-63
2022/07/30 10:55:14;;;;;;;13.33;2.80;;;;;;;25.84;43.22;100454.72;5071022;28;20935;-64
2022/07/30 10:58:11;;;;;;;4.53;2.43;;;;;;;26.04;42.24;100450.00;5074646;28;20519;-63
2022/07/30 11:00:52;;;;;;;5.80;2.70;;;;;;;26.16;42.82;100455.28;5073440;28;20433;-63
2022/07/30 11:03:22;;;;;;;5.10;2.67;;;;;;;26.21;45.31;100449.03;5088786;28;20416;-63
2022/07/30 11:05:49;;;;;;;6.03;2.73;;;;;;;26.25;47.07;100452.69;5090844;28;20432;-64
2022/07/30 11:08:30;;;;;;;5.57;2.87;;;;;;;26.26;43.33;100457.25;5077726;28;20875;-63
2022/07/30 11:10:55;;;;;;;4.20;2.50;;;;;;;26.23;43.46;100449.41;5070044;28;20481;-63
2022/07/30 11:13:54;;;;;;;7.80;3.00;;;;;;;26.24;44.19;100451.03;5071137;28;20425;-63
2022/07/30 11:16:21;;;;;;;7.90;3.70;;;;;;;26.68;42.70;100456.75;5064747;28;20207;-63
2022/07/30 11:19:17;;;;;;;8.83;3.67;;;;;;;26.51;42.63;100443.31;5071911;28;20840;-63
2022/07/30 11:21:43;;;;;;;7.40;3.20;;;;;;;26.41;43.91;100438.47;5066786;28;20460;-63
2022/07/30 11:24:46;;;;;;;4.60;2.67;;;;;;;26.57;41.35;100435.81;5076080;28;20766;-63
2022/07/30 11:27:37;;;;;;;5.77;2.50;;;;;;;26.62;42.41;100435.31;5081701;28;20428;-63